Alvarado, Indiana
Current Conditions -  °F | °C
As of 7:15 AM on Saturday 01 Nov 2014 (Local Time) from KANQ Reporting Station
NA  
Wind Chill: 20°   Ceiling: NA
Heat Index: 28°   Visibility: NA
Dew Point: 19°   Wind: 8mph
Humidity: 69%   Direction: 20°NNE
Pressure: 30.27"   Gusts: NA
Location:  41.5557°N, 84.8806°W
Report Text: KANQ 011115Z AUTO 02007KT M02/M07 A3027 RMK
Loading
Personal Weather Stations






























Interactive Weather Map
Tropical Storm Tracking
New forecast layout! Learn more

10-Day Weather Forecast

Advertisements
Track Severe Weather on mobile